createdAt,value
2019-03-10T00:00:37.247Z,7.95
2019-03-10T00:02:12.221Z,7.99
2019-03-10T00:03:46.438Z,8.01
2019-03-10T00:05:20.656Z,8.02
2019-03-10T00:06:55.308Z,8.01
2019-03-10T00:08:29.539Z,8.02
2019-03-10T00:10:06.406Z,8.06
2019-03-10T00:11:40.609Z,8.05
2019-03-10T00:13:15.319Z,8.03
2019-03-10T00:14:49.515Z,7.99
2019-03-10T00:16:23.990Z,7.91
2019-03-10T00:17:58.236Z,7.85
2019-03-10T00:19:32.736Z,7.81
2019-03-10T00:21:06.990Z,7.76
2019-03-10T00:22:41.214Z,7.76
2019-03-10T00:24:15.559Z,7.79
2019-03-10T00:25:50.112Z,7.79
2019-03-10T00:27:24.340Z,7.77
2019-03-10T00:28:58.529Z,7.76
2019-03-10T00:30:32.777Z,7.74
2019-03-10T00:32:07.586Z,7.70
2019-03-10T00:33:41.873Z,7.67
2019-03-10T00:35:16.141Z,7.67
2019-03-10T00:36:50.393Z,7.69
2019-03-10T00:38:25.015Z,7.63
2019-03-10T00:40:24.523Z,7.60
2019-03-10T00:42:30.386Z,7.56
2019-03-10T00:44:23.307Z,7.49
2019-03-10T00:46:26.212Z,7.43
2019-03-10T00:48:29.108Z,7.36
2019-03-10T00:50:22.636Z,7.32
2019-03-10T00:52:08.374Z,7.30
2019-03-10T00:53:42.659Z,7.28
2019-03-10T00:55:16.898Z,7.28
2019-03-10T00:56:51.548Z,7.26
2019-03-10T00:58:25.245Z,7.25
2019-03-10T01:00:00.703Z,7.25
2019-03-10T01:01:34.788Z,7.28
2019-03-10T01:03:09.814Z,7.29
2019-03-10T01:04:44.108Z,7.30
2019-03-10T01:06:18.379Z,7.32
2019-03-10T01:07:52.815Z,7.33
2019-03-10T01:09:27.373Z,7.32
2019-03-10T01:11:01.575Z,7.30
2019-03-10T01:12:35.854Z,7.27
2019-03-10T01:14:10.084Z,7.28
2019-03-10T01:15:45.314Z,7.26
2019-03-10T01:17:21.098Z,7.17
2019-03-10T01:18:57.259Z,7.14
2019-03-10T01:20:31.750Z,7.09
2019-03-10T01:22:06.353Z,7.06
2019-03-10T01:23:42.805Z,7.01
2019-03-10T01:25:16.519Z,6.97
2019-03-10T01:26:50.711Z,6.96
2019-03-10T01:28:25.457Z,6.92
2019-03-10T01:29:59.772Z,6.90
2019-03-10T01:32:02.539Z,6.88
2019-03-10T01:33:46.164Z,6.84
2019-03-10T01:35:23.491Z,6.80
2019-03-10T01:36:57.677Z,6.78
2019-03-10T01:38:31.904Z,6.74
2019-03-10T01:40:07.420Z,6.69
2019-03-10T01:41:41.625Z,6.66
2019-03-10T01:43:15.926Z,6.61
2019-03-10T01:44:50.148Z,6.58
2019-03-10T01:46:24.895Z,6.56
2019-03-10T01:47:59.412Z,6.51
2019-03-10T01:49:33.905Z,6.47
2019-03-10T01:51:08.615Z,6.44
2019-03-10T01:52:43.118Z,6.40
2019-03-10T01:54:17.394Z,6.36
2019-03-10T01:55:51.705Z,6.32
2019-03-10T01:57:25.968Z,6.30
2019-03-10T01:59:00.774Z,6.27
2019-03-10T02:00:35.494Z,6.24
2019-03-10T02:02:09.742Z,6.20
2019-03-10T02:03:43.485Z,6.19
2019-03-10T02:05:18.349Z,6.20
2019-03-10T02:06:52.622Z,6.20
2019-03-10T02:08:26.893Z,6.24
2019-03-10T02:10:00.589Z,6.25
2019-03-10T02:11:35.242Z,6.25
2019-03-10T02:13:09.544Z,6.24
2019-03-10T02:14:43.736Z,6.22
2019-03-10T02:16:18.070Z,6.22
2019-03-10T02:17:52.699Z,6.19
2019-03-10T02:19:26.900Z,6.10
2019-03-10T02:21:01.684Z,6.05
2019-03-10T02:22:36.430Z,6.00
2019-03-10T02:24:11.077Z,5.96
2019-03-10T02:25:45.285Z,5.91
2019-03-10T02:27:19.610Z,5.84
2019-03-10T02:28:53.913Z,5.81
2019-03-10T02:30:28.237Z,5.83
2019-03-10T02:32:02.513Z,5.83
2019-03-10T02:33:36.750Z,5.82
2019-03-10T02:35:11.071Z,5.81
2019-03-10T02:36:45.755Z,5.82
2019-03-10T02:38:20.471Z,5.81
2019-03-10T02:39:54.792Z,5.80
2019-03-10T02:41:28.515Z,5.79
2019-03-10T02:43:03.314Z,5.76
2019-03-10T02:44:37.754Z,5.69
2019-03-10T02:46:11.947Z,5.66
2019-03-10T02:47:46.225Z,5.51
2019-03-10T02:49:20.590Z,5.60
2019-03-10T02:50:54.810Z,5.55
2019-03-10T02:52:29.072Z,5.55
2019-03-10T02:54:03.315Z,5.54
2019-03-10T02:55:38.020Z,5.51
2019-03-10T02:57:11.660Z,5.48
2019-03-10T02:58:45.934Z,5.48
2019-03-10T03:00:19.567Z,5.46
2019-03-10T03:01:53.724Z,5.44
2019-03-10T03:03:27.359Z,5.46
2019-03-10T03:05:01.106Z,5.48
2019-03-10T03:06:34.736Z,5.51
2019-03-10T03:08:09.337Z,5.53
2019-03-10T03:09:43.221Z,5.53
2019-03-10T03:11:17.521Z,5.52
2019-03-10T03:12:51.750Z,5.46
2019-03-10T03:14:25.858Z,5.39
2019-03-10T03:15:59.562Z,5.34
2019-03-10T03:17:33.827Z,5.31
2019-03-10T03:19:07.465Z,5.25
2019-03-10T03:20:42.285Z,5.23
2019-03-10T03:22:16.556Z,5.21
2019-03-10T03:23:50.260Z,5.18
2019-03-10T03:25:25.145Z,5.15
2019-03-10T03:27:02.624Z,5.13
2019-03-10T03:28:36.068Z,5.13
2019-03-10T03:30:19.031Z,5.10
2019-03-10T03:31:52.904Z,5.06
2019-03-10T03:33:27.214Z,5.01
2019-03-10T03:35:01.071Z,5.01
2019-03-10T03:36:36.233Z,5.00
2019-03-10T03:38:10.450Z,5.01
2019-03-10T03:39:44.363Z,5.01
2019-03-10T03:41:23.780Z,5.01
2019-03-10T03:42:58.135Z,4.99
2019-03-10T03:44:32.420Z,5.00
2019-03-10T03:46:06.736Z,4.99
2019-03-10T03:47:40.438Z,4.98
2019-03-10T03:49:14.198Z,4.96
2019-03-10T03:50:47.914Z,4.96
2019-03-10T03:52:21.821Z,4.96
2019-03-10T03:53:55.570Z,4.96
2019-03-10T03:55:29.283Z,4.98
2019-03-10T03:57:03.900Z,4.97
2019-03-10T03:58:38.858Z,4.94
2019-03-10T04:00:13.140Z,4.93
2019-03-10T04:01:48.397Z,4.91
2019-03-10T04:03:22.091Z,4.87
2019-03-10T04:04:55.910Z,4.83
2019-03-10T04:06:29.589Z,4.78
2019-03-10T04:08:03.292Z,4.74
2019-03-10T04:09:36.959Z,4.75
2019-03-10T04:11:11.189Z,4.75
2019-03-10T04:12:45.143Z,4.72
2019-03-10T04:14:18.745Z,4.72
2019-03-10T04:15:53.060Z,4.72
2019-03-10T04:17:27.319Z,4.72
2019-03-10T04:19:00.935Z,4.75
2019-03-10T04:20:35.217Z,4.76
2019-03-10T04:22:08.964Z,4.77
2019-03-10T04:23:43.431Z,4.78
2019-03-10T04:25:18.719Z,4.77
2019-03-10T04:26:52.431Z,4.78
2019-03-10T04:28:26.084Z,4.77
2019-03-10T04:30:00.456Z,4.77
2019-03-10T04:31:34.380Z,4.73
2019-03-10T04:33:08.018Z,4.72
2019-03-10T04:34:41.652Z,4.70
2019-03-10T04:36:15.893Z,4.67
2019-03-10T04:37:49.588Z,4.65
2019-03-10T04:39:23.294Z,4.60
2019-03-10T04:40:56.934Z,4.58
2019-03-10T04:42:30.644Z,4.48
2019-03-10T04:44:04.798Z,4.40
2019-03-10T04:45:38.486Z,4.36
2019-03-10T04:47:12.736Z,4.37
2019-03-10T04:48:46.741Z,4.36
2019-03-10T04:50:20.357Z,4.38
2019-03-10T04:51:54.068Z,4.37
2019-03-10T04:53:28.410Z,4.33
2019-03-10T04:55:16.211Z,4.48
2019-03-10T04:56:51.550Z,4.53
2019-03-10T04:58:26.118Z,4.55
2019-03-10T05:00:00.433Z,4.64
2019-03-10T05:01:34.232Z,4.68
2019-03-10T05:03:07.895Z,4.74
2019-03-10T05:04:41.530Z,4.79
2019-03-10T05:06:15.831Z,4.82
2019-03-10T05:07:50.188Z,4.86
2019-03-10T05:09:23.862Z,4.88
2019-03-10T05:10:57.480Z,4.91
2019-03-10T05:12:31.242Z,4.92
2019-03-10T05:14:05.408Z,4.96
2019-03-10T05:15:40.249Z,5.00
2019-03-10T05:17:13.882Z,5.00
2019-03-10T05:18:48.202Z,4.93
2019-03-10T05:20:22.083Z,4.93
2019-03-10T05:21:55.730Z,4.98
2019-03-10T05:23:37.561Z,5.00
2019-03-10T05:25:22.695Z,5.06
2019-03-10T05:26:56.647Z,5.16
2019-03-10T05:28:32.294Z,5.25
2019-03-10T05:30:08.993Z,5.35
2019-03-10T05:31:43.313Z,5.46
2019-03-10T05:33:17.807Z,5.59
2019-03-10T05:34:51.464Z,5.71
2019-03-10T05:36:25.175Z,5.77
2019-03-10T05:37:58.960Z,5.85
2019-03-10T05:39:33.488Z,5.95
2019-03-10T05:41:07.262Z,6.03
2019-03-10T05:42:40.852Z,6.14
2019-03-10T05:44:15.045Z,6.22
2019-03-10T05:45:48.998Z,6.29
2019-03-10T05:47:23.634Z,6.27
2019-03-10T05:48:57.223Z,6.25
2019-03-10T05:50:30.857Z,6.18
2019-03-10T05:52:04.800Z,6.19
2019-03-10T05:53:39.056Z,6.15
2019-03-10T05:55:13.274Z,6.10
2019-03-10T05:56:46.948Z,6.07
2019-03-10T05:58:21.358Z,6.02
2019-03-10T05:59:54.963Z,6.03
2019-03-10T06:01:30.135Z,6.06
2019-03-10T06:03:03.882Z,6.27
2019-03-10T06:04:38.381Z,6.38
2019-03-10T06:06:11.998Z,6.38
2019-03-10T06:07:46.272Z,6.43
2019-03-10T06:09:20.614Z,6.48
2019-03-10T06:10:54.794Z,6.61
2019-03-10T06:12:29.124Z,6.79
2019-03-10T06:14:03.313Z,7.13
2019-03-10T06:15:37.534Z,7.72
2019-03-10T06:17:12.041Z,8.38
2019-03-10T06:18:46.684Z,9.07
2019-03-10T06:20:20.910Z,9.68
2019-03-10T06:21:55.124Z,10.11
2019-03-10T06:23:29.613Z,10.52
2019-03-10T06:25:04.647Z,11.01
2019-03-10T06:26:38.870Z,11.34
2019-03-10T06:28:13.137Z,11.75
2019-03-10T06:29:47.655Z,12.37
2019-03-10T06:31:21.888Z,12.68
2019-03-10T06:32:56.233Z,12.83
2019-03-10T06:34:30.787Z,12.96
2019-03-10T06:36:05.200Z,13.09
2019-03-10T06:37:39.508Z,13.29
2019-03-10T06:39:13.834Z,13.39
2019-03-10T06:40:48.133Z,13.34
2019-03-10T06:42:22.957Z,13.42
2019-03-10T06:43:57.186Z,13.59
2019-03-10T06:45:31.490Z,13.88
2019-03-10T06:47:05.809Z,13.88
2019-03-10T06:48:40.313Z,13.92
2019-03-10T06:50:14.900Z,13.99
2019-03-10T06:51:49.211Z,13.76
2019-03-10T06:53:23.464Z,13.82
2019-03-10T06:54:58.162Z,14.17
2019-03-10T06:56:32.504Z,14.32
2019-03-10T06:58:06.733Z,14.30
2019-03-10T06:59:40.978Z,14.31
2019-03-10T07:01:15.521Z,14.38
2019-03-10T07:02:49.872Z,14.43
2019-03-10T07:04:24.096Z,14.43
2019-03-10T07:05:58.455Z,14.67
2019-03-10T07:07:32.929Z,15.18
2019-03-10T07:09:07.289Z,15.69
2019-03-10T07:10:41.545Z,16.03
2019-03-10T07:12:15.773Z,16.18
2019-03-10T07:13:50.302Z,16.11
2019-03-10T07:15:26.420Z,15.43
2019-03-10T07:17:00.691Z,15.34
2019-03-10T07:18:34.924Z,15.54
2019-03-10T07:20:15.746Z,16.12
2019-03-10T07:21:49.993Z,16.83
2019-03-10T07:23:24.811Z,17.33
2019-03-10T07:24:59.019Z,17.61
2019-03-10T07:26:33.412Z,17.78
2019-03-10T07:28:25.414Z,18.35
2019-03-10T07:30:01.357Z,18.55
2019-03-10T07:31:37.342Z,18.87
2019-03-10T07:33:28.450Z,19.26
2019-03-10T07:35:07.007Z,19.72
2019-03-10T07:36:49.235Z,20.16
2019-03-10T07:38:41.474Z,20.37
2019-03-10T07:40:20.315Z,19.81
2019-03-10T07:42:08.631Z,19.46
2019-03-10T07:43:44.489Z,19.30
2019-03-10T07:45:20.356Z,19.13
2019-03-10T07:47:12.762Z,19.37
2019-03-10T07:49:00.432Z,19.81
2019-03-10T07:50:42.194Z,19.42
2019-03-10T07:52:27.432Z,18.99
2019-03-10T07:54:08.790Z,18.83
2019-03-10T07:55:44.347Z,18.84
2019-03-10T07:57:29.720Z,18.70
2019-03-10T07:59:05.283Z,18.68
2019-03-10T08:00:46.922Z,18.70
2019-03-10T08:02:38.947Z,19.06
2019-03-10T08:04:17.381Z,18.93
2019-03-10T08:06:09.408Z,19.15
2019-03-10T08:07:48.111Z,19.39
2019-03-10T08:09:38.894Z,19.29
2019-03-10T08:11:17.295Z,19.54
2019-03-10T08:12:55.504Z,19.39
2019-03-10T08:14:45.867Z,19.09
2019-03-10T08:16:21.754Z,18.81
2019-03-10T08:18:03.748Z,18.83
2019-03-10T08:19:54.964Z,18.89
2019-03-10T08:21:46.618Z,18.99
2019-03-10T08:23:25.667Z,19.00
2019-03-10T08:25:01.250Z,18.89
2019-03-10T08:26:37.091Z,18.82
2019-03-10T08:28:21.330Z,19.16
2019-03-10T08:30:13.463Z,18.88
2019-03-10T08:31:49.050Z,18.85
2019-03-10T08:33:36.531Z,18.75
2019-03-10T08:35:12.389Z,18.64
2019-03-10T08:36:54.565Z,18.49
2019-03-10T08:38:46.702Z,18.55
2019-03-10T08:40:30.898Z,18.76
2019-03-10T08:42:19.548Z,19.23
2019-03-10T08:44:04.754Z,19.56
2019-03-10T08:45:52.553Z,19.74
2019-03-10T08:47:30.641Z,20.50
2019-03-10T08:49:21.455Z,20.86
2019-03-10T08:51:00.036Z,20.83
2019-03-10T08:52:39.210Z,21.01
2019-03-10T08:54:23.596Z,21.45
2019-03-10T08:56:14.374Z,21.47
2019-03-10T08:58:02.155Z,22.05
2019-03-10T08:59:56.011Z,22.55
2019-03-10T09:01:37.105Z,22.78
2019-03-10T09:03:29.655Z,22.73
2019-03-10T09:05:05.694Z,23.03
2019-03-10T09:06:41.540Z,23.12
2019-03-10T09:08:29.572Z,23.26
2019-03-10T09:10:07.579Z,23.27
2019-03-10T09:11:59.781Z,22.93
2019-03-10T09:13:44.583Z,23.03
2019-03-10T09:15:23.358Z,23.09
2019-03-10T09:17:01.940Z,23.36
2019-03-10T09:18:52.694Z,23.22
2019-03-10T09:20:34.171Z,23.40
2019-03-10T09:22:27.961Z,22.74
2019-03-10T09:24:22.305Z,22.52
2019-03-10T09:26:01.054Z,22.62
2019-03-10T09:27:39.644Z,22.67
2019-03-10T09:29:15.530Z,22.93
2019-03-10T09:31:03.926Z,23.39
2019-03-10T09:32:42.984Z,24.00
2019-03-10T09:34:18.805Z,23.39
2019-03-10T09:36:00.700Z,22.73
2019-03-10T09:37:39.467Z,22.98
2019-03-10T09:39:26.875Z,23.28
2019-03-10T09:41:14.602Z,23.49
2019-03-10T09:42:53.683Z,23.79
2019-03-10T09:44:35.240Z,23.85
2019-03-10T09:46:14.136Z,23.52
2019-03-10T09:48:05.179Z,23.07
2019-03-10T09:49:57.181Z,23.19
2019-03-10T09:51:33.067Z,23.33
2019-03-10T09:53:10.603Z,23.50
2019-03-10T09:55:01.881Z,23.21
2019-03-10T09:56:44.061Z,22.39
2019-03-10T09:58:20.015Z,21.92
2019-03-10T10:00:12.107Z,21.36
2019-03-10T10:01:47.961Z,21.25
2019-03-10T10:03:29.945Z,21.25
2019-03-10T10:05:13.369Z,21.26
2019-03-10T10:06:52.307Z,21.23
2019-03-10T10:08:33.773Z,21.16
2019-03-10T10:10:10.831Z,21.12
2019-03-10T10:11:49.707Z,21.03
2019-03-10T10:13:34.657Z,20.76
2019-03-10T10:15:23.945Z,20.89
2019-03-10T10:16:59.796Z,21.14
2019-03-10T10:18:38.432Z,21.07
2019-03-10T10:20:17.231Z,20.91
2019-03-10T10:22:02.555Z,20.81
2019-03-10T10:23:38.525Z,20.75
2019-03-10T10:25:14.313Z,20.76
2019-03-10T10:26:50.188Z,20.74
2019-03-10T10:28:32.294Z,20.63
2019-03-10T10:30:19.800Z,20.34
2019-03-10T10:31:58.319Z,20.62
2019-03-10T10:33:46.531Z,20.57
2019-03-10T10:35:40.712Z,20.51
2019-03-10T10:37:22.669Z,20.46
2019-03-10T10:39:07.806Z,20.54
2019-03-10T10:40:55.257Z,20.47
2019-03-10T10:42:31.114Z,20.46
2019-03-10T10:44:09.947Z,20.43
2019-03-10T10:45:53.459Z,20.43
2019-03-10T10:47:31.764Z,20.54
2019-03-10T10:49:25.558Z,20.60
2019-03-10T10:51:10.353Z,20.54
2019-03-10T10:52:49.202Z,20.41
2019-03-10T10:54:31.519Z,20.46
2019-03-10T10:56:16.503Z,20.61
2019-03-10T10:57:58.334Z,20.82
2019-03-10T10:59:37.390Z,20.72
2019-03-10T11:01:25.493Z,20.73
2019-03-10T11:03:19.835Z,20.84
2019-03-10T11:04:58.519Z,20.63
2019-03-10T11:06:37.356Z,20.73
2019-03-10T11:08:18.891Z,20.78
2019-03-10T11:09:54.760Z,20.88
2019-03-10T11:11:45.985Z,20.99
2019-03-10T11:13:24.799Z,21.04
2019-03-10T11:15:00.699Z,21.18
2019-03-10T11:16:45.648Z,21.15
2019-03-10T11:18:24.753Z,21.15
2019-03-10T11:20:16.797Z,21.08
2019-03-10T11:21:52.740Z,21.09
2019-03-10T11:23:37.653Z,21.02
2019-03-10T11:25:13.520Z,21.02
2019-03-10T11:26:55.319Z,21.01
2019-03-10T11:28:33.922Z,20.82
2019-03-10T11:30:29.210Z,20.70
2019-03-10T11:32:11.075Z,20.70
2019-03-10T11:33:46.976Z,20.78
2019-03-10T11:35:41.538Z,20.89
2019-03-10T11:37:17.435Z,21.03
2019-03-10T11:38:53.275Z,21.04
2019-03-10T11:40:32.161Z,21.06
2019-03-10T11:42:10.882Z,21.16
2019-03-10T11:44:03.122Z,21.16
2019-03-10T11:45:39.023Z,21.06
2019-03-10T11:47:21.328Z,21.10
2019-03-10T11:49:08.980Z,21.19
2019-03-10T11:50:53.941Z,21.22
2019-03-10T11:52:33.244Z,21.21
2019-03-10T11:54:09.076Z,21.11
2019-03-10T11:55:53.931Z,21.05
2019-03-10T11:57:32.556Z,20.98
2019-03-10T11:59:08.578Z,21.02
2019-03-10T12:00:47.445Z,21.07
2019-03-10T12:02:23.336Z,21.08
2019-03-10T12:04:16.926Z,21.05
2019-03-10T12:05:55.765Z,20.91
2019-03-10T12:07:31.682Z,20.96
2019-03-10T12:09:11.853Z,21.09
2019-03-10T12:10:46.267Z,21.16
2019-03-10T12:12:20.531Z,21.16
2019-03-10T12:13:54.854Z,21.15
2019-03-10T12:15:29.118Z,21.21
2019-03-10T12:17:03.643Z,21.21
2019-03-10T12:18:37.887Z,21.24
2019-03-10T12:20:13.638Z,21.32
2019-03-10T12:21:47.898Z,21.35
2019-03-10T12:23:22.596Z,21.30
2019-03-10T12:24:56.886Z,21.28
2019-03-10T12:26:31.124Z,21.33
2019-03-10T12:28:07.472Z,21.36
2019-03-10T12:29:41.889Z,21.37
2019-03-10T12:31:16.104Z,21.41
2019-03-10T12:32:50.369Z,21.42
2019-03-10T12:34:24.593Z,21.43
2019-03-10T12:35:59.047Z,21.50
2019-03-10T12:37:33.516Z,21.54
2019-03-10T12:39:08.238Z,21.43
2019-03-10T12:40:42.450Z,21.36
2019-03-10T12:42:16.888Z,21.30
2019-03-10T12:43:51.083Z,21.32
2019-03-10T12:45:25.404Z,21.33
2019-03-10T12:46:59.637Z,21.33
2019-03-10T12:48:34.060Z,21.28
2019-03-10T12:50:12.996Z,21.33
2019-03-10T12:51:47.196Z,21.37
2019-03-10T12:53:21.424Z,21.42
2019-03-10T12:54:55.790Z,21.48
2019-03-10T12:56:30.139Z,21.54
2019-03-10T12:58:04.746Z,21.48
2019-03-10T12:59:38.958Z,21.46
2019-03-10T13:01:13.640Z,21.45
2019-03-10T13:02:47.891Z,21.39
2019-03-10T13:04:22.203Z,21.39
2019-03-10T13:05:56.449Z,21.49
2019-03-10T13:07:30.877Z,21.60
2019-03-10T13:09:07.103Z,21.64
2019-03-10T13:10:41.353Z,21.70
2019-03-10T13:12:15.674Z,21.72
2019-03-10T13:13:50.183Z,21.76
2019-03-10T13:15:24.382Z,21.72
2019-03-10T13:16:58.649Z,21.71
2019-03-10T13:18:32.983Z,21.75
2019-03-10T13:20:10.385Z,21.78
2019-03-10T13:21:44.614Z,21.82
2019-03-10T13:23:18.864Z,21.85
2019-03-10T13:24:53.206Z,21.74
2019-03-10T13:26:27.735Z,21.69
2019-03-10T13:28:01.926Z,21.72
2019-03-10T13:29:36.217Z,21.76
2019-03-10T13:31:10.449Z,21.78
2019-03-10T13:32:45.080Z,21.76
2019-03-10T13:34:19.359Z,21.79
2019-03-10T13:35:53.675Z,21.82
2019-03-10T13:37:27.877Z,21.89
2019-03-10T13:39:02.627Z,21.96
2019-03-10T13:40:36.933Z,22.04
2019-03-10T13:42:11.178Z,22.11
2019-03-10T13:43:45.575Z,22.12
2019-03-10T13:45:21.716Z,22.16
2019-03-10T13:46:55.990Z,22.19
2019-03-10T13:48:30.288Z,22.23
2019-03-10T13:50:07.506Z,22.30
2019-03-10T13:51:42.228Z,22.36
2019-03-10T13:53:16.491Z,22.37
2019-03-10T13:54:50.733Z,22.38
2019-03-10T13:56:24.949Z,22.40
2019-03-10T13:57:59.679Z,22.36
2019-03-10T13:59:33.985Z,22.35
2019-03-10T14:01:08.285Z,22.37
2019-03-10T14:02:42.591Z,22.38
2019-03-10T14:04:17.352Z,22.44
2019-03-10T14:05:53.727Z,22.42
2019-03-10T14:07:27.963Z,22.42
2019-03-10T14:09:02.130Z,22.42
2019-03-10T14:10:36.571Z,22.41
2019-03-10T14:12:10.766Z,22.43
2019-03-10T14:13:45.060Z,22.49
2019-03-10T14:15:19.367Z,22.52
2019-03-10T14:16:53.859Z,22.54
2019-03-10T14:18:28.174Z,22.53
2019-03-10T14:20:02.363Z,22.56
2019-03-10T14:21:36.586Z,22.60
2019-03-10T14:23:11.133Z,22.62
2019-03-10T14:24:45.465Z,22.62
2019-03-10T14:26:19.853Z,22.57
2019-03-10T14:27:54.162Z,22.54
2019-03-10T14:29:29.369Z,22.51
2019-03-10T14:31:03.696Z,22.54
2019-03-10T14:32:38.047Z,22.56
2019-03-10T14:34:12.266Z,22.54
2019-03-10T14:35:47.022Z,22.51
2019-03-10T14:37:21.329Z,22.49
2019-03-10T14:38:55.653Z,22.49
2019-03-10T14:40:29.928Z,22.51
2019-03-10T14:42:04.489Z,22.53
2019-03-10T14:43:38.744Z,22.53
2019-03-10T14:45:15.510Z,22.53
2019-03-10T14:46:49.776Z,22.53
2019-03-10T14:48:24.382Z,22.54
2019-03-10T14:49:58.561Z,22.53
2019-03-10T14:51:32.760Z,22.53
2019-03-10T14:53:07.089Z,22.49
2019-03-10T14:54:41.560Z,22.49
2019-03-10T14:56:15.786Z,22.46
2019-03-10T14:57:50.107Z,22.43
2019-03-10T14:59:24.392Z,22.40
2019-03-10T15:00:59.125Z,22.35
2019-03-10T15:02:33.394Z,22.27
2019-03-10T15:04:07.609Z,22.20
2019-03-10T15:05:41.954Z,22.11
2019-03-10T15:07:16.429Z,22.03
2019-03-10T15:08:50.686Z,21.96
2019-03-10T15:10:24.998Z,21.92
2019-03-10T15:11:59.261Z,21.85
2019-03-10T15:13:33.486Z,21.76
2019-03-10T15:15:21.684Z,21.68
2019-03-10T15:16:49.087Z,21.58
2019-03-10T15:18:23.337Z,21.49
2019-03-10T15:19:57.546Z,21.43
2019-03-10T15:21:31.766Z,21.35
2019-03-10T15:23:06.075Z,21.28
2019-03-10T15:24:40.385Z,21.18
2019-03-10T15:26:14.591Z,21.09
2019-03-10T15:27:50.367Z,21.02
2019-03-10T15:29:24.582Z,20.95
2019-03-10T15:30:58.929Z,20.88
2019-03-10T15:32:33.108Z,20.82
2019-03-10T15:34:07.824Z,20.78
2019-03-10T15:35:42.122Z,20.73
2019-03-10T15:37:16.406Z,20.69
2019-03-10T15:38:50.638Z,20.65
2019-03-10T15:40:24.919Z,20.56
2019-03-10T15:41:59.143Z,20.46
2019-03-10T15:43:33.471Z,20.38
2019-03-10T15:45:10.427Z,20.34
2019-03-10T15:46:44.798Z,20.27
2019-03-10T15:48:19.122Z,20.21
2019-03-10T15:49:53.337Z,20.14
2019-03-10T15:51:27.636Z,20.08
2019-03-10T15:53:01.957Z,20.00
2019-03-10T15:54:37.874Z,19.93
2019-03-10T15:56:12.188Z,19.86
2019-03-10T15:57:50.609Z,19.76
2019-03-10T15:59:22.388Z,19.65
2019-03-10T16:00:56.729Z,19.54
2019-03-10T16:02:32.806Z,19.46
2019-03-10T16:04:18.392Z,19.36
2019-03-10T16:05:52.740Z,19.26
2019-03-10T16:07:27.273Z,19.21
2019-03-10T16:09:02.808Z,19.12
2019-03-10T16:10:37.047Z,19.03
2019-03-10T16:12:11.332Z,18.94
2019-03-10T16:13:45.545Z,18.82
2019-03-10T16:15:27.506Z,18.70
2019-03-10T16:17:01.821Z,18.59
2019-03-10T16:18:36.163Z,18.50
2019-03-10T16:20:17.081Z,18.42
2019-03-10T16:21:51.253Z,18.31
2019-03-10T16:23:25.479Z,18.23
2019-03-10T16:24:59.668Z,18.16
2019-03-10T16:26:33.998Z,18.04
2019-03-10T16:28:08.257Z,17.91
2019-03-10T16:29:42.482Z,17.79
2019-03-10T16:31:17.390Z,17.74
2019-03-10T16:32:52.623Z,17.66
2019-03-10T16:34:28.786Z,17.60
2019-03-10T16:36:06.070Z,17.49
2019-03-10T16:37:41.178Z,17.39
2019-03-10T16:39:15.412Z,17.26
2019-03-10T16:40:52.818Z,17.15
2019-03-10T16:42:27.644Z,17.06
2019-03-10T16:44:02.969Z,16.99
2019-03-10T16:45:37.742Z,16.93
2019-03-10T16:47:12.116Z,16.88
2019-03-10T16:48:46.639Z,16.81
2019-03-10T16:50:28.678Z,16.74
2019-03-10T16:52:04.117Z,16.20
2019-03-10T16:53:41.669Z,16.53
2019-03-10T16:55:15.699Z,16.48
2019-03-10T16:56:49.967Z,16.44
2019-03-10T16:58:24.243Z,16.36
2019-03-10T16:59:58.567Z,16.29
2019-03-10T17:01:32.912Z,16.20
2019-03-10T17:03:07.167Z,16.14
2019-03-10T17:04:41.471Z,16.09
2019-03-10T17:06:15.677Z,16.04
2019-03-10T17:07:50.096Z,15.99
2019-03-10T17:09:24.406Z,15.91
2019-03-10T17:10:58.668Z,15.85
2019-03-10T17:12:32.981Z,15.85
2019-03-10T17:14:07.295Z,15.82
2019-03-10T17:15:41.633Z,15.73
2019-03-10T17:17:15.857Z,15.63
2019-03-10T17:18:50.143Z,15.53
2019-03-10T17:20:24.481Z,15.42
2019-03-10T17:21:58.751Z,15.34
2019-03-10T17:23:33.051Z,15.25
2019-03-10T17:25:08.856Z,15.19
2019-03-10T17:26:43.068Z,15.15
2019-03-10T17:28:17.321Z,15.08
2019-03-10T17:29:51.614Z,15.01
2019-03-10T17:31:25.835Z,14.92
2019-03-10T17:33:00.181Z,14.83
2019-03-10T17:34:35.931Z,14.75
2019-03-10T17:36:10.213Z,14.68
2019-03-10T17:37:44.539Z,14.58
2019-03-10T17:39:18.759Z,14.50
2019-03-10T17:40:53.105Z,14.43
2019-03-10T17:42:27.394Z,14.34
2019-03-10T17:44:01.698Z,14.27
2019-03-10T17:45:35.970Z,14.26
2019-03-10T17:47:10.237Z,14.20
2019-03-10T17:48:44.635Z,14.12
2019-03-10T17:50:19.298Z,14.05
2019-03-10T17:51:53.585Z,13.99
2019-03-10T17:53:27.875Z,13.94
2019-03-10T17:55:02.196Z,13.87
2019-03-10T17:56:36.467Z,13.81
2019-03-10T17:58:10.809Z,13.74
2019-03-10T17:59:45.146Z,13.68
2019-03-10T18:01:19.716Z,13.63
2019-03-10T18:02:54.012Z,13.57
2019-03-10T18:04:28.366Z,13.51
2019-03-10T18:06:02.574Z,13.45
2019-03-10T18:07:36.804Z,13.38
2019-03-10T18:09:11.533Z,13.31
2019-03-10T18:10:45.894Z,13.28
2019-03-10T18:12:21.784Z,13.25
2019-03-10T18:13:56.062Z,13.22
2019-03-10T18:15:31.798Z,13.16
2019-03-10T18:17:06.132Z,13.13
2019-03-10T18:18:40.424Z,13.09
2019-03-10T18:20:22.777Z,13.06
2019-03-10T18:21:57.000Z,12.94
2019-03-10T18:23:31.273Z,12.86
2019-03-10T18:25:07.923Z,12.76
2019-03-10T18:26:42.247Z,12.63
2019-03-10T18:28:16.466Z,12.50
2019-03-10T18:29:50.847Z,12.35
2019-03-10T18:31:25.091Z,12.26
2019-03-10T18:32:59.325Z,12.18
2019-03-10T18:34:33.578Z,12.13
2019-03-10T18:36:07.871Z,12.08
2019-03-10T18:37:42.210Z,12.03
2019-03-10T18:39:16.438Z,12.00
2019-03-10T18:40:50.768Z,11.95
2019-03-10T18:42:25.112Z,11.93
2019-03-10T18:43:59.344Z,11.92
2019-03-10T18:45:33.632Z,11.91
2019-03-10T18:47:07.882Z,11.90
2019-03-10T18:48:42.161Z,11.89
2019-03-10T18:50:24.153Z,11.89
2019-03-10T18:51:58.403Z,11.90
2019-03-10T18:53:32.732Z,11.91
2019-03-10T18:55:09.541Z,11.93
2019-03-10T18:56:43.770Z,11.94
2019-03-10T18:58:18.113Z,11.67
2019-03-10T18:59:52.459Z,11.94
2019-03-10T19:01:26.690Z,11.94
2019-03-10T19:03:00.931Z,11.94
2019-03-10T19:04:35.157Z,11.95
2019-03-10T19:06:09.447Z,11.93
2019-03-10T19:07:43.705Z,11.92
2019-03-10T19:09:18.228Z,11.87
2019-03-10T19:10:52.459Z,11.85
2019-03-10T19:12:26.811Z,11.81
2019-03-10T19:14:01.109Z,11.83
2019-03-10T19:15:35.361Z,11.82
2019-03-10T19:17:09.720Z,11.73
2019-03-10T19:18:44.005Z,11.69
2019-03-10T19:20:18.205Z,11.58
2019-03-10T19:21:52.568Z,11.43
2019-03-10T19:23:26.871Z,11.34
2019-03-10T19:25:01.164Z,11.29
2019-03-10T19:26:35.361Z,11.25
2019-03-10T19:28:09.754Z,11.23
2019-03-10T19:29:44.055Z,11.19
2019-03-10T19:31:18.392Z,11.14
2019-03-10T19:32:52.653Z,11.12
2019-03-10T19:34:26.905Z,11.11
2019-03-10T19:36:01.195Z,11.09
2019-03-10T19:37:35.556Z,11.07
2019-03-10T19:39:09.794Z,11.04
2019-03-10T19:40:44.100Z,11.03
2019-03-10T19:42:18.440Z,11.04
2019-03-10T19:43:52.798Z,11.02
2019-03-10T19:45:27.090Z,10.98
2019-03-10T19:47:01.379Z,10.95
2019-03-10T19:48:35.675Z,10.95
2019-03-10T19:50:12.503Z,10.90
2019-03-10T19:51:46.734Z,10.84
2019-03-10T19:53:23.261Z,10.81
2019-03-10T19:54:57.533Z,10.74
2019-03-10T19:56:31.843Z,10.70
2019-03-10T19:58:06.138Z,10.68
2019-03-10T19:59:40.371Z,10.67
2019-03-10T20:01:14.695Z,10.60
2019-03-10T20:02:49.050Z,10.55
2019-03-10T20:04:23.401Z,10.51
2019-03-10T20:05:57.601Z,10.49
2019-03-10T20:07:31.918Z,10.45
2019-03-10T20:09:07.093Z,10.43
2019-03-10T20:10:41.811Z,10.41
2019-03-10T20:12:16.595Z,10.37
2019-03-10T20:13:50.901Z,10.34
2019-03-10T20:15:25.851Z,10.28
2019-03-10T20:17:00.080Z,10.20
2019-03-10T20:18:34.362Z,10.14
2019-03-10T20:20:11.342Z,10.12
2019-03-10T20:21:45.696Z,10.11
2019-03-10T20:23:19.972Z,10.10
2019-03-10T20:24:54.202Z,10.06
2019-03-10T20:26:28.430Z,10.03
2019-03-10T20:28:02.764Z,10.00
2019-03-10T20:29:37.013Z,10.01
2019-03-10T20:31:11.298Z,10.01
2019-03-10T20:32:45.616Z,10.02
2019-03-10T20:34:19.975Z,10.03
2019-03-10T20:35:54.179Z,10.04
2019-03-10T20:37:28.463Z,10.05
2019-03-10T20:39:02.778Z,10.05
2019-03-10T20:40:37.146Z,10.06
2019-03-10T20:42:12.330Z,10.08
2019-03-10T20:43:46.975Z,10.07
2019-03-10T20:45:24.536Z,10.07
2019-03-10T20:46:58.569Z,10.04
2019-03-10T20:48:32.907Z,9.97
2019-03-10T20:50:10.314Z,9.94
2019-03-10T20:51:44.679Z,9.88
2019-03-10T20:53:18.853Z,9.84
2019-03-10T20:54:53.058Z,9.77
2019-03-10T20:56:27.395Z,9.68